Time;durP1;ratioP1;P1;durP2;ratioP2;P2;SDS_P1;SDS_P2;PMS_P1;PMS_P2;Temp;Humidity;BMP_temperature;BMP_pressure;BME280_temperature;BME280_humidity;BME280_pressure;Samples;Min_cycle;Max_cycle;Signal;HPM_P1;HPM_P2
2024/02/22 00:02:02;;;;;;;13.98;4.88;;;11.30;99.50;;;;;;4976813;28;20061;-77
2024/02/22 00:04:28;;;;;;;12.15;5.80;;;11.30;99.40;;;;;;4976519;28;20030;-76
2024/02/22 00:06:53;;;;;;;11.05;4.75;;;11.40;99.40;;;;;;4977306;28;20035;-78
2024/02/22 00:09:19;;;;;;;14.23;5.22;;;11.30;99.30;;;;;;4977931;28;20534;-77
2024/02/22 00:11:45;;;;;;;15.80;6.95;;;11.40;99.40;;;;;;4971885;28;20054;-76
2024/02/22 00:14:10;;;;;;;16.48;6.40;;;11.30;99.40;;;;;;4976294;28;20046;-77
2024/02/22 00:16:36;;;;;;;17.52;6.35;;;11.30;99.30;;;;;;4976446;28;20031;-76
2024/02/22 00:19:01;;;;;;;15.77;5.43;;;11.40;99.30;;;;;;4977114;28;21118;-77
2024/02/22 00:21:27;;;;;;;17.52;5.97;;;11.40;99.30;;;;;;4977464;28;20050;-79
2024/02/22 00:23:52;;;;;;;21.15;6.63;;;11.40;99.30;;;;;;4970263;28;20034;-77
2024/02/22 00:26:19;;;;;;;15.43;5.70;;;11.40;99.20;;;;;;4980497;28;20050;-78
2024/02/22 00:28:45;;;;;;;19.42;5.72;;;11.40;99.20;;;;;;4979881;28;20023;-78
2024/02/22 00:31:10;;;;;;;14.90;4.85;;;11.40;99.20;;;;;;4981098;28;20034;-78
2024/02/22 00:33:36;;;;;;;19.83;6.00;;;11.40;99.10;;;;;;4978346;28;20987;-78
2024/02/22 00:36:02;;;;;;;19.02;5.15;;;11.40;99.10;;;;;;4979554;28;20054;-77
2024/02/22 00:38:27;;;;;;;16.95;5.10;;;11.40;99.10;;;;;;4979013;28;20026;-79
2024/02/22 00:40:54;;;;;;;17.70;5.80;;;11.40;99.00;;;;;;4979388;28;20042;-78
2024/02/22 00:43:19;;;;;;;20.08;5.45;;;11.40;99.00;;;;;;4975353;28;20038;-77
2024/02/22 00:45:45;;;;;;;20.95;5.70;;;11.40;98.90;;;;;;4968302;28;20065;-77
2024/02/22 00:48:11;;;;;;;20.75;5.55;;;11.40;98.80;;;;;;4957289;28;20034;-77
2024/02/22 00:50:36;;;;;;;21.02;5.22;;;11.40;98.80;;;;;;4972698;28;20122;-77
2024/02/22 00:53:02;;;;;;;22.55;5.63;;;11.40;98.70;;;;;;4975777;28;20030;-78
2024/02/22 00:55:28;;;;;;;20.33;5.15;;;11.40;98.60;;;;;;4975632;28;20031;-77
2024/02/22 00:57:53;;;;;;;20.92;6.05;;;11.40;98.60;;;;;;4974053;28;20022;-80
2024/02/22 01:00:19;;;;;;;18.25;5.40;;;11.40;98.50;;;;;;4974380;28;20547;-79
2024/02/22 01:02:45;;;;;;;19.90;5.68;;;11.40;98.50;;;;;;4974851;28;20034;-78
2024/02/22 01:05:10;;;;;;;28.13;6.28;;;11.40;98.50;;;;;;4967935;28;20153;-78
2024/02/22 01:07:36;;;;;;;22.45;5.40;;;11.40;98.50;;;;;;4976046;28;20026;-78
2024/02/22 01:10:03;;;;;;;19.58;5.30;;;11.30;98.40;;;;;;4976185;28;20192;-76
2024/02/22 01:12:29;;;;;;;20.02;5.20;;;11.40;98.40;;;;;;4977740;28;20022;-79
2024/02/22 01:14:54;;;;;;;17.67;5.30;;;11.30;98.30;;;;;;4972182;28;20030;-78
2024/02/22 01:17:20;;;;;;;21.50;6.35;;;11.30;98.30;;;;;;4977547;28;20043;-78
2024/02/22 01:19:46;;;;;;;21.05;5.15;;;11.30;98.30;;;;;;4974088;28;20557;-78
2024/02/22 01:22:12;;;;;;;22.35;4.95;;;11.30;98.30;;;;;;4978134;28;20086;-77
2024/02/22 01:24:38;;;;;;;19.67;4.78;;;11.30;98.30;;;;;;4980556;28;20026;-78
2024/02/22 01:27:06;;;;;;;23.13;5.47;;;11.40;98.20;;;;;;4978386;28;20372;-78
2024/02/22 01:29:31;;;;;;;20.73;5.45;;;11.30;98.10;;;;;;4982320;28;20088;-78
2024/02/22 01:31:57;;;;;;;16.95;4.57;;;11.30;98.10;;;;;;4969716;28;20043;-78
2024/02/22 01:34:23;;;;;;;19.15;5.07;;;11.30;98.10;;;;;;4975223;28;20572;-78
2024/02/22 01:36:49;;;;;;;15.65;5.07;;;11.30;98.00;;;;;;4975455;28;20112;-78
2024/02/22 01:39:14;;;;;;;23.55;4.80;;;11.30;98.00;;;;;;4976529;28;20023;-80
2024/02/22 01:41:40;;;;;;;17.67;4.55;;;11.30;97.90;;;;;;4968379;28;20046;-79
2024/02/22 01:44:06;;;;;;;21.23;5.00;;;11.30;97.90;;;;;;4977613;28;20125;-79
2024/02/22 01:46:32;;;;;;;21.13;5.53;;;11.30;97.90;;;;;;4966392;28;20081;-78
2024/02/22 01:49:00;;;;;;;22.80;4.68;;;11.30;97.90;;;;;;4977801;28;20449;-78
2024/02/22 01:51:26;;;;;;;15.68;4.60;;;11.30;97.90;;;;;;4974180;28;20034;-79
2024/02/22 01:53:52;;;;;;;19.90;5.22;;;11.30;97.80;;;;;;4973094;28;20045;-77
2024/02/22 01:56:20;;;;;;;19.10;4.70;;;11.30;97.80;;;;;;4974334;28;20035;-78
2024/02/22 01:58:49;;;;;;;19.10;5.40;;;11.20;97.70;;;;;;4975649;28;20018;-79
2024/02/22 02:01:16;;;;;;;17.80;4.63;;;11.20;97.60;;;;;;4972728;28;20049;-79
2024/02/22 02:03:43;;;;;;;21.38;4.70;;;11.20;97.60;;;;;;4973679;28;20023;-76
2024/02/22 02:06:08;;;;;;;18.58;4.57;;;11.20;97.60;;;;;;4964345;28;20125;-78
2024/02/22 02:08:36;;;;;;;19.00;4.97;;;11.10;97.60;;;;;;4971579;28;20413;-77
2024/02/22 02:11:02;;;;;;;14.45;3.88;;;11.10;97.60;;;;;;4975921;28;20065;-76
2024/02/22 02:13:28;;;;;;;22.23;4.30;;;11.10;97.60;;;;;;4969517;28;20133;-76
2024/02/22 02:15:53;;;;;;;20.30;4.63;;;11.10;97.60;;;;;;4976463;28;20129;-76
2024/02/22 02:18:19;;;;;;;15.20;4.57;;;11.10;97.60;;;;;;4971307;28;20034;-79
2024/02/22 02:20:55;;;;;;;17.10;4.22;;;11.10;97.60;;;;;;4971542;28;20039;-78
2024/02/22 02:23:33;;;;;;;17.40;3.67;;;11.10;97.60;;;;;;4976560;28;20034;-78
2024/02/22 02:26:00;;;;;;;17.17;4.03;;;11.10;97.60;;;;;;4972365;28;20500;-79
2024/02/22 02:28:25;;;;;;;12.50;3.72;;;11.10;97.60;;;;;;4974071;28;20010;-77
2024/02/22 02:30:51;;;;;;;14.90;4.03;;;11.00;97.60;;;;;;4975787;28;20045;-78
2024/02/22 02:33:17;;;;;;;18.25;5.13;;;11.10;97.60;;;;;;4973874;28;20081;-77
2024/02/22 02:35:43;;;;;;;15.27;4.50;;;11.10;97.50;;;;;;4976100;28;20580;-78
2024/02/22 02:38:13;;;;;;;15.73;3.80;;;11.00;97.50;;;;;;4973175;28;20036;-78
2024/02/22 02:40:38;;;;;;;17.58;3.80;;;11.00;97.60;;;;;;4973370;28;20179;-78
2024/02/22 02:43:05;;;;;;;14.60;3.78;;;10.90;97.50;;;;;;4976022;28;20529;-80
2024/02/22 02:45:30;;;;;;;14.57;3.53;;;11.00;97.50;;;;;;4969521;28;20219;-74
2024/02/22 02:47:56;;;;;;;10.07;3.30;;;11.00;97.50;;;;;;4978930;28;20113;-77
2024/02/22 02:50:21;;;;;;;13.05;3.17;;;10.90;97.50;;;;;;4972882;28;20062;-78
2024/02/22 02:52:47;;;;;;;14.38;3.28;;;10.90;97.50;;;;;;4976811;28;20419;-78
2024/02/22 02:55:14;;;;;;;12.38;3.53;;;10.90;97.50;;;;;;4970532;28;20336;-78
2024/02/22 02:57:40;;;;;;;10.90;2.80;;;10.90;97.50;;;;;;4972808;28;20033;-76
2024/02/22 03:00:13;;;;;;;15.30;3.40;;;10.90;97.50;;;;;;4975497;28;20044;-78
2024/02/22 03:02:40;;;;;;;12.95;3.45;;;10.90;97.40;;;;;;4975413;28;20022;-75
2024/02/22 03:05:06;;;;;;;11.80;2.90;;;10.80;97.40;;;;;;4966232;28;20019;-78
2024/02/22 03:07:32;;;;;;;15.32;3.35;;;10.80;97.40;;;;;;4972097;28;20398;-79
2024/02/22 03:09:58;;;;;;;11.27;2.65;;;10.80;97.40;;;;;;4972194;28;20097;-77
2024/02/22 03:12:23;;;;;;;10.52;2.75;;;10.80;97.30;;;;;;4972863;28;20089;-78
2024/02/22 03:14:50;;;;;;;11.93;3.08;;;10.80;97.30;;;;;;4970873;28;20088;-77
2024/02/22 03:17:19;;;;;;;11.50;2.55;;;10.80;97.30;;;;;;4972645;28;20034;-78
2024/02/22 03:19:45;;;;;;;9.70;2.78;;;10.70;97.30;;;;;;4967020;28;20472;-78
2024/02/22 03:22:11;;;;;;;12.05;3.38;;;10.80;97.30;;;;;;4974729;28;20500;-77
2024/02/22 03:24:36;;;;;;;9.90;2.47;;;10.70;97.20;;;;;;4975764;28;20812;-78
2024/02/22 03:27:03;;;;;;;11.07;3.15;;;10.70;97.20;;;;;;4969468;28;20030;-78
2024/02/22 03:29:29;;;;;;;11.77;3.30;;;10.70;97.30;;;;;;4971346;28;20052;-78
2024/02/22 03:31:55;;;;;;;11.43;2.83;;;10.70;97.20;;;;;;4972142;28;20093;-79
2024/02/22 03:34:21;;;;;;;12.02;3.05;;;10.70;97.20;;;;;;4974629;28;20018;-78
2024/02/22 03:36:48;;;;;;;10.52;2.45;;;10.70;97.10;;;;;;4970197;28;20338;-79
2024/02/22 03:39:14;;;;;;;12.23;2.60;;;10.70;97.00;;;;;;4976054;28;20447;-79
2024/02/22 03:41:40;;;;;;;12.18;3.03;;;10.60;97.00;;;;;;4973672;28;20145;-77
2024/02/22 03:44:05;;;;;;;10.18;2.65;;;10.60;97.00;;;;;;4971665;28;20493;-79
2024/02/22 03:46:31;;;;;;;11.02;2.60;;;10.60;97.00;;;;;;4974576;28;20026;-78
2024/02/22 03:48:57;;;;;;;9.57;2.95;;;10.60;97.00;;;;;;4971210;28;20010;-77
2024/02/22 03:51:22;;;;;;;10.40;2.42;;;10.60;97.00;;;;;;4971303;28;20035;-78
2024/02/22 03:53:49;;;;;;;12.60;2.90;;;10.50;96.90;;;;;;4974309;28;20120;-77
2024/02/22 03:56:16;;;;;;;10.38;2.72;;;10.50;96.90;;;;;;4970366;28;20109;-78
2024/02/22 03:58:41;;;;;;;11.90;3.05;;;10.50;97.00;;;;;;4974047;28;20556;-78
2024/02/22 04:01:07;;;;;;;8.75;2.47;;;10.40;96.90;;;;;;4970965;28;20256;-77
2024/02/22 04:03:34;;;;;;;13.25;2.97;;;10.40;96.90;;;;;;4972447;28;20506;-78
2024/02/22 04:06:00;;;;;;;8.23;2.55;;;10.40;97.00;;;;;;4977946;28;20054;-78
2024/02/22 04:08:25;;;;;;;9.82;2.42;;;10.40;97.10;;;;;;4978984;28;20030;-79
2024/02/22 04:10:51;;;;;;;11.63;2.67;;;10.40;97.00;;;;;;4974327;28;20120;-78
2024/02/22 04:13:17;;;;;;;13.00;2.92;;;10.40;97.00;;;;;;4976515;28;20405;-77
2024/02/22 04:15:43;;;;;;;13.48;3.00;;;10.30;97.10;;;;;;4979491;28;20022;-78
2024/02/22 04:18:09;;;;;;;7.95;2.47;;;10.40;97.10;;;;;;4972032;28;20076;-78
2024/02/22 04:20:34;;;;;;;11.52;3.60;;;10.30;97.00;;;;;;4981965;28;20084;-77
2024/02/22 04:23:00;;;;;;;9.60;3.22;;;10.20;97.00;;;;;;4979600;28;20389;-78
2024/02/22 04:25:25;;;;;;;12.60;3.63;;;10.20;97.00;;;;;;4975082;28;20023;-78
2024/02/22 04:27:51;;;;;;;19.65;4.80;;;10.20;97.00;;;;;;4977290;28;20030;-77
2024/02/22 04:30:18;;;;;;;11.90;4.32;;;10.20;97.10;;;;;;4976511;28;20046;-77
2024/02/22 04:32:46;;;;;;;15.77;4.32;;;10.10;97.20;;;;;;4973846;28;20073;-78
2024/02/22 04:35:12;;;;;;;11.57;4.00;;;10.10;97.30;;;;;;4974908;28;20428;-77
2024/02/22 04:37:38;;;;;;;12.07;3.78;;;10.10;97.40;;;;;;4972290;28;20029;-78
2024/02/22 04:40:06;;;;;;;18.45;3.92;;;10.00;97.50;;;;;;4975151;28;20043;-77
2024/02/22 04:42:31;;;;;;;13.13;3.20;;;10.00;97.50;;;;;;4975719;28;20022;-77
2024/02/22 04:44:57;;;;;;;12.13;3.58;;;10.00;97.60;;;;;;4976443;28;20042;-77
2024/02/22 04:47:22;;;;;;;11.55;3.28;;;9.90;97.60;;;;;;4978718;28;20053;-77
2024/02/22 04:49:50;;;;;;;12.43;4.00;;;9.90;97.70;;;;;;4978543;28;20038;-77
2024/02/22 04:52:16;;;;;;;9.85;3.40;;;9.90;97.70;;;;;;4973139;28;20030;-77
2024/02/22 04:54:42;;;;;;;14.75;4.18;;;9.80;97.80;;;;;;4973691;28;20033;-76
2024/02/22 04:57:07;;;;;;;14.77;3.85;;;9.80;97.90;;;;;;4972142;28;20215;-77
2024/02/22 04:59:33;;;;;;;12.40;4.03;;;9.90;98.00;;;;;;4974296;28;20064;-76
2024/02/22 05:01:59;;;;;;;12.45;4.25;;;9.80;98.00;;;;;;4976865;28;20443;-76
2024/02/22 05:04:26;;;;;;;13.60;4.38;;;9.90;98.10;;;;;;4979584;28;20023;-77
2024/02/22 05:06:51;;;;;;;13.82;4.50;;;9.80;98.10;;;;;;4976955;28;20050;-76
2024/02/22 05:09:17;;;;;;;13.73;5.03;;;9.80;98.00;;;;;;4971450;28;20101;-78
2024/02/22 05:11:49;;;;;;;17.13;6.15;;;9.80;98.10;;;;;;4977600;28;20358;-76
2024/02/22 05:14:15;;;;;;;12.70;4.88;;;9.80;98.10;;;;;;4971206;28;20019;-78
2024/02/22 05:16:41;;;;;;;17.08;5.95;;;9.80;98.20;;;;;;4976631;28;20038;-76
2024/02/22 05:19:07;;;;;;;16.42;5.82;;;9.80;98.30;;;;;;4972676;28;20038;-77
2024/02/22 05:21:33;;;;;;;14.05;4.80;;;9.80;98.20;;;;;;4971007;28;20064;-77
2024/02/22 05:24:00;;;;;;;11.88;4.75;;;9.80;98.20;;;;;;4977491;28;20027;-77
2024/02/22 05:26:27;;;;;;;12.65;4.68;;;9.80;98.20;;;;;;4976373;28;20034;-77
2024/02/22 05:28:53;;;;;;;16.00;5.88;;;9.70;98.20;;;;;;4978787;28;20373;-76
2024/02/22 05:31:24;;;;;;;17.17;5.38;;;9.70;98.30;;;;;;4976286;28;20053;-78
2024/02/22 05:33:50;;;;;;;16.33;4.95;;;9.70;98.30;;;;;;4978322;28;20041;-77
2024/02/22 05:36:18;;;;;;;16.38;5.45;;;9.70;98.30;;;;;;4977776;28;20611;-76
2024/02/22 05:38:44;;;;;;;12.98;4.00;;;9.80;98.40;;;;;;4979932;28;20062;-77
2024/02/22 05:41:10;;;;;;;10.85;3.88;;;9.70;98.30;;;;;;4955990;28;20400;-77
2024/02/22 05:43:35;;;;;;;10.80;3.97;;;9.70;98.40;;;;;;4959003;28;20101;-76
2024/02/22 05:46:01;;;;;;;12.02;4.38;;;9.70;98.40;;;;;;4955562;28;20461;-77
2024/02/22 05:48:27;;;;;;;14.07;4.32;;;9.70;98.50;;;;;;4958591;28;20037;-76
2024/02/22 05:50:54;;;;;;;12.60;4.03;;;9.70;98.50;;;;;;4966810;28;20034;-77
2024/02/22 05:53:20;;;;;;;13.90;5.22;;;9.70;98.60;;;;;;4979535;28;20033;-77
2024/02/22 05:55:45;;;;;;;13.55;4.65;;;9.70;98.50;;;;;;4976824;28;20026;-76
2024/02/22 05:58:11;;;;;;;10.65;3.75;;;9.70;98.60;;;;;;4978581;28;20077;-77
2024/02/22 06:00:37;;;;;;;13.35;5.10;;;9.70;98.60;;;;;;4974581;28;20038;-77
2024/02/22 06:03:04;;;;;;;13.90;4.45;;;9.60;98.60;;;;;;4977437;28;20038;-76
2024/02/22 06:05:30;;;;;;;13.60;4.28;;;9.70;98.60;;;;;;4974192;28;20175;-76
2024/02/22 06:07:55;;;;;;;13.25;4.30;;;9.60;98.60;;;;;;4974938;28;20436;-77
2024/02/22 06:10:22;;;;;;;13.45;4.28;;;9.60;98.60;;;;;;4968931;28;20452;-78
2024/02/22 06:12:47;;;;;;;14.55;4.43;;;9.60;98.60;;;;;;4956221;28;20103;-75
2024/02/22 06:15:13;;;;;;;16.70;5.30;;;9.60;98.60;;;;;;4953603;28;20141;-77
2024/02/22 06:17:38;;;;;;;11.50;3.80;;;9.60;98.60;;;;;;4979346;28;20450;-76
2024/02/22 06:20:07;;;;;;;15.00;3.90;;;9.50;98.60;;;;;;4973479;28;20551;-78
2024/02/22 06:22:33;;;;;;;12.30;4.13;;;9.60;98.70;;;;;;4979084;28;20033;-77
2024/02/22 06:24:59;;;;;;;12.02;3.88;;;9.50;98.70;;;;;;4973922;28;20035;-76
2024/02/22 06:27:24;;;;;;;10.77;3.50;;;9.50;98.70;;;;;;4973160;28;20026;-76
2024/02/22 06:29:50;;;;;;;29.30;18.98;;;9.40;98.70;;;;;;4972383;28;20039;-76
2024/02/22 06:32:16;;;;;;;11.77;5.40;;;9.40;98.80;;;;;;4953320;28;20532;-77
2024/02/22 06:34:42;;;;;;;9.70;3.58;;;9.40;98.80;;;;;;4955400;28;20045;-77
2024/02/22 06:37:08;;;;;;;10.13;3.53;;;9.50;98.80;;;;;;4976861;28;20032;-78
2024/02/22 06:39:34;;;;;;;11.63;3.88;;;9.40;98.80;;;;;;4972862;28;20033;-79
2024/02/22 06:42:01;;;;;;;10.55;3.92;;;9.40;98.80;;;;;;4973019;28;20089;-78
2024/02/22 06:44:27;;;;;;;8.10;4.45;;;9.40;98.80;;;;;;4972469;28;20437;-77
2024/02/22 06:46:53;;;;;;;9.90;4.25;;;9.40;98.90;;;;;;4977813;28;20126;-77
2024/02/22 06:49:19;;;;;;;9.85;5.00;;;9.40;98.80;;;;;;4977051;28;20022;-74
2024/02/22 06:51:44;;;;;;;8.80;4.38;;;9.40;98.90;;;;;;4973475;28;20123;-73
2024/02/22 06:54:12;;;;;;;9.35;4.93;;;9.40;98.90;;;;;;4979413;28;20109;-73
2024/02/22 06:56:38;;;;;;;12.32;5.93;;;9.40;98.90;;;;;;4974146;28;20629;-73
2024/02/22 06:59:04;;;;;;;12.20;5.60;;;9.50;98.90;;;;;;4975095;28;20038;-73
2024/02/22 07:01:32;;;;;;;13.75;6.18;;;9.50;98.90;;;;;;4974950;28;20034;-73
2024/02/22 07:03:57;;;;;;;11.63;5.80;;;9.50;98.90;;;;;;4977345;28;20023;-73
2024/02/22 07:06:23;;;;;;;12.52;6.50;;;9.50;98.90;;;;;;4973813;28;20026;-73
2024/02/22 07:08:49;;;;;;;15.32;6.25;;;9.50;98.90;;;;;;4978092;28;20065;-72
2024/02/22 07:11:14;;;;;;;11.35;6.57;;;9.60;98.90;;;;;;4971077;28;20522;-72
2024/02/22 07:13:40;;;;;;;10.50;6.25;;;9.60;98.90;;;;;;4973547;28;20025;-74
2024/02/22 07:16:07;;;;;;;11.30;6.65;;;9.60;99.00;;;;;;4976209;28;20110;-74
2024/02/22 07:18:32;;;;;;;12.55;6.20;;;9.60;99.00;;;;;;4975486;28;20109;-73
2024/02/22 07:20:58;;;;;;;13.27;7.30;;;9.60;98.90;;;;;;4971610;28;20065;-73
2024/02/22 07:23:24;;;;;;;14.93;7.30;;;9.70;98.90;;;;;;4976018;28;20098;-73
2024/02/22 07:25:49;;;;;;;13.18;8.07;;;9.70;98.90;;;;;;4968228;28;20370;-73
2024/02/22 07:28:15;;;;;;;16.90;10.15;;;9.80;98.90;;;;;;4953714;28;20029;-74
2024/02/22 07:30:41;;;;;;;15.38;10.57;;;9.90;98.90;;;;;;4965127;28;20113;-74
2024/02/22 07:33:09;;;;;;;14.88;10.07;;;9.90;98.80;;;;;;4972807;28;20030;-73
2024/02/22 07:35:35;;;;;;;16.85;10.82;;;9.80;98.70;;;;;;4988312;28;20393;-73
2024/02/22 07:38:00;;;;;;;16.02;11.00;;;9.80;98.70;;;;;;4975758;28;20023;-72
2024/02/22 07:40:26;;;;;;;21.15;12.65;;;9.80;98.70;;;;;;4975292;28;20082;-73
2024/02/22 07:42:52;;;;;;;20.33;12.48;;;9.90;98.60;;;;;;4953272;28;20035;-72
2024/02/22 07:45:18;;;;;;;22.25;13.70;;;9.90;98.60;;;;;;4965098;28;20453;-73
2024/02/22 07:47:44;;;;;;;24.63;14.73;;;9.90;98.50;;;;;;4980218;28;20232;-74
2024/02/22 07:50:10;;;;;;;26.65;17.75;;;9.90;98.50;;;;;;4975491;28;20760;-73
2024/02/22 07:52:39;;;;;;;36.15;24.15;;;9.90;98.60;;;;;;4976810;28;20104;-74
2024/02/22 07:55:06;;;;;;;39.25;27.00;;;10.00;98.60;;;;;;4970021;28;20365;-74
2024/02/22 07:57:32;;;;;;;50.97;36.10;;;10.00;98.60;;;;;;4978893;28;20520;-75
2024/02/22 07:59:57;;;;;;;50.28;36.17;;;10.10;98.60;;;;;;4977622;28;20059;-74
2024/02/22 08:02:24;;;;;;;53.25;38.70;;;10.10;98.60;;;;;;4979812;28;20026;-74
2024/02/22 08:04:50;;;;;;;57.47;42.13;;;10.10;98.60;;;;;;4977294;28;20170;-78
2024/02/22 08:07:18;;;;;;;60.00;46.35;;;10.20;98.60;;;;;;4977702;28;20070;-74
2024/02/22 08:09:44;;;;;;;58.72;42.38;;;10.20;98.60;;;;;;4978997;28;20026;-74
2024/02/22 08:12:09;;;;;;;45.10;35.25;;;10.30;98.50;;;;;;4978366;28;20089;-74
2024/02/22 08:14:35;;;;;;;41.38;33.92;;;10.30;98.50;;;;;;4979075;28;20307;-74
2024/02/22 08:17:01;;;;;;;43.70;33.63;;;10.40;98.40;;;;;;4979034;28;20117;-74
2024/02/22 08:19:27;;;;;;;60.50;42.90;;;10.40;98.40;;;;;;4979402;28;20050;-75
2024/02/22 08:21:53;;;;;;;60.83;44.30;;;10.50;98.40;;;;;;4977256;28;20431;-74
2024/02/22 08:24:21;;;;;;;56.13;41.50;;;10.50;98.40;;;;;;4979938;28;20254;-74
2024/02/22 08:26:46;;;;;;;50.25;36.28;;;10.50;98.40;;;;;;4974669;28;20033;-74
2024/02/22 08:29:12;;;;;;;48.78;34.00;;;10.60;98.40;;;;;;4976949;28;20026;-74
2024/02/22 08:31:38;;;;;;;44.03;29.85;;;10.60;98.40;;;;;;4978249;28;20042;-73
2024/02/22 08:34:03;;;;;;;36.05;24.85;;;10.60;98.30;;;;;;4981058;28;20061;-74
2024/02/22 08:36:29;;;;;;;31.35;22.55;;;10.60;98.20;;;;;;4968679;28;20356;-74
2024/02/22 08:38:57;;;;;;;29.80;21.50;;;10.60;98.30;;;;;;4958948;28;20536;-74
2024/02/22 08:41:23;;;;;;;26.42;18.98;;;10.70;98.30;;;;;;4975367;28;20047;-74
2024/02/22 08:43:48;;;;;;;23.23;16.98;;;10.80;98.30;;;;;;4979223;28;20539;-73
2024/02/22 08:46:14;;;;;;;25.30;15.63;;;10.80;98.30;;;;;;4975883;28;20503;-73
2024/02/22 08:48:40;;;;;;;22.13;15.73;;;10.80;98.30;;;;;;4978122;28;20022;-74
2024/02/22 08:51:08;;;;;;;22.70;14.73;;;11.00;98.20;;;;;;4964049;28;20023;-74
2024/02/22 08:53:35;;;;;;;22.30;15.15;;;11.00;98.10;;;;;;4957142;28;20046;-74
2024/02/22 08:56:00;;;;;;;21.73;14.90;;;11.10;98.00;;;;;;4970588;28;20446;-75
2024/02/22 08:58:26;;;;;;;20.13;14.18;;;11.10;97.90;;;;;;4978866;28;20500;-75
2024/02/22 09:00:51;;;;;;;17.77;13.02;;;11.20;98.00;;;;;;4974196;28;20440;-75
2024/02/22 09:03:17;;;;;;;18.55;14.27;;;11.30;97.90;;;;;;4974010;28;20034;-75
2024/02/22 09:05:45;;;;;;;21.92;14.80;;;11.30;97.80;;;;;;4971173;28;20035;-75
2024/02/22 09:08:11;;;;;;;19.52;14.07;;;11.40;97.70;;;;;;4978888;28;20032;-75
2024/02/22 09:10:36;;;;;;;19.08;14.30;;;11.40;97.50;;;;;;4976437;28;20026;-74
2024/02/22 09:13:02;;;;;;;21.13;16.58;;;11.50;97.60;;;;;;4978876;28;20022;-75
2024/02/22 09:15:27;;;;;;;19.65;14.73;;;11.60;97.40;;;;;;4978854;28;20033;-74
2024/02/22 09:17:53;;;;;;;19.40;14.38;;;11.50;97.30;;;;;;4979626;28;20122;-75
2024/02/22 09:20:19;;;;;;;20.98;15.15;;;11.50;97.40;;;;;;4977879;28;20039;-75
2024/02/22 09:22:45;;;;;;;21.33;14.93;;;11.60;97.50;;;;;;4977882;28;20022;-75
2024/02/22 09:25:10;;;;;;;19.30;14.90;;;11.60;97.40;;;;;;4978449;28;20117;-76
2024/02/22 09:27:36;;;;;;;17.83;14.50;;;11.50;97.60;;;;;;4979994;28;20034;-75
2024/02/22 09:30:03;;;;;;;16.90;13.50;;;11.60;97.70;;;;;;4975785;28;20457;-75
2024/02/22 09:32:30;;;;;;;17.73;13.77;;;11.60;97.70;;;;;;4977486;28;20018;-74
2024/02/22 09:34:55;;;;;;;19.52;14.85;;;11.60;97.80;;;;;;4978748;28;20050;-73
2024/02/22 09:37:22;;;;;;;20.38;14.85;;;11.60;97.90;;;;;;4975778;28;20431;-73
2024/02/22 09:39:50;;;;;;;19.30;14.80;;;11.50;98.00;;;;;;4978572;28;20172;-73
2024/02/22 09:42:16;;;;;;;17.38;12.40;;;11.60;98.10;;;;;;4980284;28;20061;-73
2024/02/22 09:44:43;;;;;;;15.75;12.88;;;11.60;98.10;;;;;;4977164;28;20053;-74
2024/02/22 09:47:10;;;;;;;16.73;12.82;;;11.60;98.20;;;;;;4978849;28;20030;-74
2024/02/22 09:49:39;;;;;;;15.50;11.68;;;11.60;98.20;;;;;;4973513;28;20304;-74
2024/02/22 09:52:06;;;;;;;14.32;10.48;;;11.60;98.30;;;;;;4974730;28;20026;-75
2024/02/22 09:54:32;;;;;;;15.27;11.32;;;11.60;98.40;;;;;;4974961;28;20034;-79
2024/02/22 09:56:59;;;;;;;12.35;8.75;;;11.60;98.50;;;;;;4977944;28;20043;-75
2024/02/22 09:59:24;;;;;;;12.48;8.93;;;11.60;98.50;;;;;;4973753;28;20090;-73
2024/02/22 10:01:50;;;;;;;12.70;7.70;;;11.70;98.60;;;;;;4978205;28;20149;-77
2024/02/22 10:04:19;;;;;;;13.15;9.30;;;11.70;98.60;;;;;;4978670;28;20062;-75
2024/02/22 10:06:49;;;;;;;8.70;6.03;;;11.80;98.70;;;;;;4954646;28;20045;-75
2024/02/22 10:09:15;;;;;;;10.20;5.50;;;11.80;98.60;;;;;;4951089;28;20030;-75
2024/02/22 10:11:44;;;;;;;9.35;6.30;;;11.80;98.70;;;;;;4957169;28;20056;-75
2024/02/22 10:14:15;;;;;;;9.15;5.80;;;11.90;98.70;;;;;;4957045;28;20105;-76
2024/02/22 10:16:43;;;;;;;9.15;4.97;;;12.00;98.60;;;;;;4969633;28;20038;-75
2024/02/22 10:19:12;;;;;;;7.72;5.05;;;12.00;98.60;;;;;;4979003;28;20088;-79
2024/02/22 10:21:38;;;;;;;6.97;4.93;;;12.00;98.70;;;;;;4974851;28;20058;-76
2024/02/22 10:24:04;;;;;;;8.10;4.90;;;12.10;98.70;;;;;;4979513;28;20030;-75
2024/02/22 10:26:30;;;;;;;6.68;4.60;;;12.10;98.70;;;;;;4977033;28;20034;-75
2024/02/22 10:29:07;;;;;;;7.03;4.93;;;12.20;98.70;;;;;;4975546;28;20192;-75
2024/02/22 10:31:42;;;;;;;5.93;4.18;;;12.20;98.70;;;;;;4969736;28;20194;-75
2024/02/22 10:34:08;;;;;;;7.00;4.78;;;12.30;98.60;;;;;;4975998;28;20019;-73
2024/02/22 10:36:36;;;;;;;8.40;4.85;;;12.30;98.70;;;;;;4961794;28;20035;-74
2024/02/22 10:39:02;;;;;;;6.60;4.60;;;12.50;98.70;;;;;;4955510;28;20105;-74
2024/02/22 10:41:29;;;;;;;7.07;5.05;;;12.50;98.70;;;;;;4967917;28;20077;-74
2024/02/22 10:43:57;;;;;;;6.47;4.22;;;12.60;98.60;;;;;;4977920;28;20083;-74
2024/02/22 10:46:27;;;;;;;6.57;4.95;;;12.70;98.40;;;;;;4970306;28;20030;-75
2024/02/22 10:48:53;;;;;;;6.93;4.38;;;12.70;98.30;;;;;;4977991;28;20030;-73
2024/02/22 10:51:20;;;;;;;5.95;3.97;;;12.80;98.20;;;;;;4974541;28;20467;-75
2024/02/22 10:53:53;;;;;;;6.72;4.40;;;12.90;98.10;;;;;;4977257;28;20101;-73
2024/02/22 10:56:24;;;;;;;7.88;4.45;;;13.00;98.00;;;;;;4977302;28;20560;-74
2024/02/22 10:58:58;;;;;;;8.05;4.68;;;13.10;98.00;;;;;;4974782;28;20489;-74
2024/02/22 11:01:26;;;;;;;5.75;4.10;;;13.20;97.80;;;;;;4970736;28;20130;-73
2024/02/22 11:03:52;;;;;;;5.85;3.47;;;13.40;97.60;;;;;;4975440;28;20276;-76
2024/02/22 11:06:21;;;;;;;6.05;4.20;;;13.50;97.50;;;;;;4968323;28;20465;-74
2024/02/22 11:08:50;;;;;;;5.80;3.90;;;13.50;97.20;;;;;;4973193;28;20028;-77
2024/02/22 11:11:30;;;;;;;5.25;3.22;;;13.60;97.10;;;;;;4973393;28;20110;-80
2024/02/22 11:14:02;;;;;;;5.40;3.67;;;13.60;97.00;;;;;;4975934;28;20030;-79
2024/02/22 11:16:37;;;;;;;4.70;2.88;;;13.60;96.90;;;;;;4973097;28;20056;-78
2024/02/22 11:19:14;;;;;;;5.75;3.70;;;13.70;96.90;;;;;;4977344;28;20018;-77
2024/02/22 11:21:40;;;;;;;7.47;4.15;;;13.90;97.10;;;;;;4969291;28;20129;-75
2024/02/22 11:24:12;;;;;;;5.63;3.53;;;14.10;96.60;;;;;;4968087;28;20052;-75
2024/02/22 11:26:39;;;;;;;4.93;3.00;;;14.10;96.00;;;;;;4961799;28;20840;-77
2024/02/22 11:29:05;;;;;;;3.45;2.53;;;14.20;96.00;;;;;;4970813;28;20061;-77
2024/02/22 11:31:31;;;;;;;3.88;2.20;;;14.40;96.00;;;;;;4970390;28;20064;-76
2024/02/22 11:33:58;;;;;;;4.20;2.45;;;14.30;95.60;;;;;;4970755;28;20461;-77
2024/02/22 11:36:25;;;;;;;4.18;2.85;;;14.20;95.80;;;;;;4967032;28;20045;-77
2024/02/22 11:39:00;;;;;;;3.75;2.60;;;14.40;96.00;;;;;;4970561;28;20189;-76
2024/02/22 11:41:30;;;;;;;3.67;2.70;;;14.40;95.90;;;;;;4967774;28;20035;-76
2024/02/22 11:44:11;;;;;;;3.08;2.58;;;14.30;96.00;;;;;;4973603;28;20489;-77
2024/02/22 11:46:40;;;;;;;6.53;4.13;;;14.20;96.30;;;;;;4970060;28;20045;-77
2024/02/22 11:49:07;;;;;;;4.15;3.05;;;14.30;96.70;;;;;;4973182;28;20080;-78
2024/02/22 11:51:33;;;;;;;3.85;2.90;;;14.40;96.50;;;;;;4970094;28;20042;-76
2024/02/22 11:53:58;;;;;;;4.35;2.92;;;14.40;96.40;;;;;;4972316;28;20023;-77
2024/02/22 11:56:25;;;;;;;6.90;4.47;;;14.30;96.50;;;;;;4960760;28;20113;-77
2024/02/22 11:58:51;;;;;;;5.95;4.35;;;14.20;96.60;;;;;;4951282;28;20034;-76
2024/02/22 12:01:18;;;;;;;5.55;4.13;;;14.30;96.90;;;;;;4950167;28;20783;-76
2024/02/22 12:03:46;;;;;;;6.30;3.50;;;14.30;96.60;;;;;;4952153;28;20069;-80
2024/02/22 12:06:14;;;;;;;5.68;3.60;;;14.30;96.50;;;;;;4948377;28;20151;-78
2024/02/22 12:08:41;;;;;;;5.18;3.47;;;14.30;96.60;;;;;;4952579;28;20034;-77
2024/02/22 12:11:08;;;;;;;5.00;3.63;;;14.30;96.60;;;;;;4963377;28;23014;-75
2024/02/22 12:13:35;;;;;;;5.35;3.55;;;14.30;96.70;;;;;;4968418;28;20102;-75
2024/02/22 12:16:19;;;;;;;5.90;3.95;;;14.30;96.70;;;;;;4969526;28;20038;-75
2024/02/22 12:18:44;;;;;;;6.97;4.30;;;14.30;96.80;;;;;;4970180;28;20046;-75
2024/02/22 12:21:11;;;;;;;6.35;4.38;;;14.30;96.80;;;;;;4970131;28;20039;-76
2024/02/22 12:23:37;;;;;;;4.88;3.53;;;14.30;96.80;;;;;;4973415;28;20083;-75
2024/02/22 12:26:08;;;;;;;5.57;3.88;;;14.10;96.90;;;;;;4973828;28;20488;-75
2024/02/22 12:28:37;;;;;;;6.78;4.30;;;14.00;97.30;;;;;;4974115;28;20042;-75
2024/02/22 12:31:04;;;;;;;6.80;3.72;;;14.10;97.50;;;;;;4974746;28;20034;-75
2024/02/22 12:33:31;;;;;;;6.00;3.70;;;14.10;97.40;;;;;;4974540;28;20451;-74
2024/02/22 12:35:57;;;;;;;4.45;3.40;;;14.10;97.50;;;;;;4973338;28;20775;-74
2024/02/22 12:38:23;;;;;;;5.65;3.42;;;14.10;97.30;;;;;;4971746;28;20026;-75